Time,TemperatureF,DewpointF,PressureIn,WindDirection,WindDirectionDegrees,WindSpeedMPH,WindSpeedGustMPH,Humidity,HourlyPrecipIn,Conditions,Clouds,dailyrainin,SolarRadiationWatts/m^2,SoftwareType,DateUTC
2013-09-26 00:03:00,49.2,47.5,30.10,ENE,57,0.0,0.0,94,0.00,,,0.00,0,Wunderground v.1.15,2013-09-26 05:03:00,
2013-09-26 00:04:00,49.2,47.5,30.10,ENE,57,0.0,0.0,94,0.00,,,0.00,0,Wunderground v.1.15,2013-09-26 05:04:00,
2013-09-26 00:06:00,49.1,47.4,30.10,ENE,57,0.0,0.0,94,0.00,,,0.00,0,Wunderground v.1.15,2013-09-26 05:06:00,
2013-09-26 00:09:00,48.9,47.2,30.09,ENE,57,0.0,0.0,94,0.00,,,0.00,0,Wunderground v.1.15,2013-09-26 05:09:00,
2013-09-26 00:10:00,48.9,47.2,30.10,ENE,57,0.0,0.0,94,0.00,,,0.00,0,Wunderground v.1.15,2013-09-26 05:10:00,
2013-09-26 00:12:00,48.8,47.2,30.10,ENE,57,0.0,0.0,94,0.00,,,0.00,0,Wunderground v.1.15,2013-09-26 05:12:00,
2013-09-26 00:15:00,48.8,47.4,30.10,ENE,57,0.0,0.0,95,0.00,,,0.00,0,Wunderground v.1.15,2013-09-26 05:15:00,
2013-09-26 00:17:00,48.8,47.4,30.10,ENE,57,0.0,0.0,95,0.00,,,0.00,0,Wunderground v.1.15,2013-09-26 05:17:00,
2013-09-26 00:20:00,48.7,47.3,30.10,ENE,57,0.0,0.0,95,0.00,,,0.00,0,Wunderground v.1.15,2013-09-26 05:20:00,
2013-09-26 00:21:00,48.7,47.3,30.10,ENE,57,0.0,0.0,95,0.00,,,0.00,0,Wunderground v.1.15,2013-09-26 05:21:00,
2013-09-26 00:25:00,48.6,47.2,30.10,ENE,57,0.0,0.0,95,0.00,,,0.00,0,Wunderground v.1.15,2013-09-26 05:25:00,
2013-09-26 00:26:00,48.6,47.2,30.10,ENE,57,0.0,0.0,95,0.00,,,0.00,0,Wunderground v.1.15,2013-09-26 05:26:00,
2013-09-26 00:27:00,48.6,47.2,30.10,ENE,57,0.0,0.0,95,0.00,,,0.00,0,Wunderground v.1.15,2013-09-26 05:27:00,
2013-09-26 00:28:00,48.5,47.1,30.10,ENE,57,0.0,0.0,95,0.00,,,0.00,0,Wunderground v.1.15,2013-09-26 05:28:00,
2013-09-26 00:30:00,48.5,47.1,30.10,ENE,57,0.0,0.0,95,0.00,,,0.00,0,Wunderground v.1.15,2013-09-26 05:30:00,
2013-09-26 00:32:00,48.5,47.1,30.10,ENE,57,0.0,0.0,95,0.00,,,0.00,0,Wunderground v.1.15,2013-09-26 05:32:00,
2013-09-26 00:34:00,48.5,47.1,30.09,ENE,57,0.0,0.0,95,0.00,,,0.00,0,Wunderground v.1.15,2013-09-26 05:34:00,
2013-09-26 00:36:00,48.4,47.0,30.09,ENE,57,0.0,0.0,95,0.00,,,0.00,0,Wunderground v.1.15,2013-09-26 05:36:00,
2013-09-26 00:38:00,48.4,47.0,30.10,ENE,57,0.0,0.0,95,0.00,,,0.00,0,Wunderground v.1.15,2013-09-26 05:38:00,
2013-09-26 00:39:00,48.3,46.9,30.10,ENE,57,0.0,0.0,95,0.00,,,0.00,0,Wunderground v.1.15,2013-09-26 05:39:00,
2013-09-26 00:43:00,48.2,46.8,30.10,ENE,57,0.0,0.0,95,0.00,,,0.00,0,Wunderground v.1.15,2013-09-26 05:43:00,
2013-09-26 00:44:00,48.2,46.8,30.10,ENE,57,0.0,0.0,95,0.00,,,0.00,0,Wunderground v.1.15,2013-09-26 05:44:00,
2013-09-26 00:45:00,48.2,46.8,30.09,ENE,57,0.0,0.0,95,0.00,,,0.00,0,Wunderground v.1.15,2013-09-26 05:45:00,
2013-09-26 00:48:00,48.1,46.7,30.10,ENE,57,0.0,0.0,95,0.00,,,0.00,0,Wunderground v.1.15,2013-09-26 05:48:00,
2013-09-26 00:49:00,48.1,46.7,30.10,ENE,57,0.0,0.0,95,0.00,,,0.00,0,Wunderground v.1.15,2013-09-26 05:49:00,
2013-09-26 00:53:00,48.1,46.7,30.10,ENE,57,0.0,0.0,95,0.00,,,0.00,0,Wunderground v.1.15,2013-09-26 05:53:00,
2013-09-26 00:54:00,48.1,46.7,30.10,ENE,57,0.0,0.0,95,0.00,,,0.00,0,Wunderground v.1.15,2013-09-26 05:54:00,
2013-09-26 00:55:00,48.0,46.6,30.10,ENE,57,1.0,1.0,95,0.00,,,0.00,0,Wunderground v.1.15,2013-09-26 05:55:00,
2013-09-26 00:58:00,48.1,46.7,30.10,ENE,57,0.0,1.0,95,0.00,,,0.00,0,Wunderground v.1.15,2013-09-26 05:58:00,
2013-09-26 01:00:00,48.1,46.7,30.10,ENE,57,0.0,0.0,95,0.00,,,0.00,0,Wunderground v.1.15,2013-09-26 06:00:00,
2013-09-26 01:03:00,48.1,47.0,30.10,ENE,57,0.0,0.0,96,0.00,,,0.00,0,Wunderground v.1.15,2013-09-26 06:03:00,
2013-09-26 01:05:00,48.2,47.1,30.10,ENE,57,0.0,0.0,96,0.00,,,0.00,0,Wunderground v.1.15,2013-09-26 06:05:00,
2013-09-26 01:09:00,48.2,47.1,30.11,ENE,57,0.0,0.0,96,0.00,,,0.00,0,Wunderground v.1.15,2013-09-26 06:09:00,
2013-09-26 01:11:00,48.2,47.1,30.11,ENE,57,0.0,0.0,96,0.00,,,0.00,0,Wunderground v.1.15,2013-09-26 06:11:00,
2013-09-26 01:12:00,48.3,47.2,30.11,ENE,57,0.0,0.0,96,0.00,,,0.00,0,Wunderground v.1.15,2013-09-26 06:12:00,
2013-09-26 01:15:00,48.3,47.2,30.11,ENE,57,0.0,0.0,96,0.00,,,0.00,0,Wunderground v.1.15,2013-09-26 06:15:00,
2013-09-26 01:18:00,48.3,47.2,30.11,ENE,57,0.0,0.0,96,0.00,,,0.00,0,Wunderground v.1.15,2013-09-26 06:18:00,
2013-09-26 01:19:00,48.3,47.2,30.11,ENE,57,0.0,0.0,96,0.00,,,0.00,0,Wunderground v.1.15,2013-09-26 06:19:00,
2013-09-26 01:20:00,48.3,47.2,30.11,ENE,57,0.0,0.0,96,0.00,,,0.00,0,Wunderground v.1.15,2013-09-26 06:20:00,
2013-09-26 01:21:00,48.3,47.2,30.11,ENE,57,0.0,0.0,96,0.00,,,0.00,0,Wunderground v.1.15,2013-09-26 06:21:00,
2013-09-26 01:24:00,48.3,47.2,30.11,ENE,57,0.0,0.0,96,0.00,,,0.00,0,Wunderground v.1.15,2013-09-26 06:24:00,
2013-09-26 01:26:00,48.2,46.8,30.11,ENE,57,0.0,0.0,95,0.00,,,0.00,0,Wunderground v.1.15,2013-09-26 06:26:00,
2013-09-26 01:27:00,48.1,46.7,30.11,ENE,57,0.0,0.0,95,0.00,,,0.00,0,Wunderground v.1.15,2013-09-26 06:27:00,
2013-09-26 01:29:00,48.0,46.6,30.11,ENE,57,0.0,0.0,95,0.00,,,0.00,0,Wunderground v.1.15,2013-09-26 06:29:00,
2013-09-26 01:32:00,47.9,46.5,30.11,ENE,57,0.0,0.0,95,0.00,,,0.00,0,Wunderground v.1.15,2013-09-26 06:32:00,
2013-09-26 01:34:00,47.7,46.3,30.11,ENE,57,0.0,0.0,95,0.00,,,0.00,0,Wunderground v.1.15,2013-09-26 06:34:00,
2013-09-26 01:36:00,47.6,46.2,30.11,ENE,57,0.0,0.0,95,0.00,,,0.00,0,Wunderground v.1.15,2013-09-26 06:36:00,
2013-09-26 01:39:00,47.5,46.1,30.11,ENE,57,0.0,0.0,95,0.00,,,0.00,0,Wunderground v.1.15,2013-09-26 06:39:00,
2013-09-26 01:44:00,47.3,45.9,30.11,ENE,57,0.0,0.0,95,0.00,,,0.00,0,Wunderground v.1.15,2013-09-26 06:44:00,
2013-09-26 01:45:00,47.3,46.2,30.11,ENE,57,0.0,0.0,96,0.00,,,0.00,0,Wunderground v.1.15,2013-09-26 06:45:00,
2013-09-26 01:47:00,47.4,46.3,30.11,ENE,57,0.0,0.0,96,0.00,,,0.00,0,Wunderground v.1.15,2013-09-26 06:47:00,
2013-09-26 01:48:00,47.4,46.3,30.11,ENE,57,0.0,0.0,96,0.00,,,0.00,0,Wunderground v.1.15,2013-09-26 06:48:00,
2013-09-26 01:50:00,47.4,46.3,30.11,ENE,57,0.0,0.0,96,0.00,,,0.00,0,Wunderground v.1.15,2013-09-26 06:50:00,
2013-09-26 01:52:00,47.5,46.4,30.11,ENE,57,0.0,0.0,96,0.00,,,0.00,0,Wunderground v.1.15,2013-09-26 06:52:00,
2013-09-26 01:54:00,47.6,46.5,30.11,ENE,57,0.0,0.0,96,0.00,,,0.00,0,Wunderground v.1.15,2013-09-26 06:54:00,
2013-09-26 01:56:00,47.6,46.5,30.11,ENE,57,0.0,0.0,96,0.00,,,0.00,0,Wunderground v.1.15,2013-09-26 06:56:00,
2013-09-26 01:57:00,47.6,46.5,30.11,ENE,57,0.0,0.0,96,0.00,,,0.00,0,Wunderground v.1.15,2013-09-26 06:57:00,
2013-09-26 02:00:00,47.7,46.6,30.11,ENE,57,0.0,0.0,96,0.00,,,0.00,0,Wunderground v.1.15,2013-09-26 07:00:00,
2013-09-26 02:01:00,47.8,46.7,30.11,ENE,57,0.0,0.0,96,0.00,,,0.00,0,Wunderground v.1.15,2013-09-26 07:01:00,
2013-09-26 02:02:00,47.8,46.7,30.11,ENE,57,0.0,0.0,96,0.00,,,0.00,0,Wunderground v.1.15,2013-09-26 07:02:00,
2013-09-26 02:06:00,47.9,46.8,30.11,ENE,57,0.0,0.0,96,0.00,,,0.00,0,Wunderground v.1.15,2013-09-26 07:06:00,
2013-09-26 02:07:00,47.9,46.8,30.11,ENE,57,0.0,0.0,96,0.00,,,0.00,0,Wunderground v.1.15,2013-09-26 07:07:00,
2013-09-26 02:11:00,47.9,46.8,30.12,ENE,57,0.0,0.0,96,0.00,,,0.00,0,Wunderground v.1.15,2013-09-26 07:11:00,
2013-09-26 02:12:00,47.9,46.8,30.12,ENE,57,0.0,0.0,96,0.00,,,0.00,0,Wunderground v.1.15,2013-09-26 07:12:00,
2013-09-26 02:13:00,48.0,46.9,30.12,ENE,57,0.0,0.0,96,0.00,,,0.00,0,Wunderground v.1.15,2013-09-26 07:13:00,
2013-09-26 02:16:00,48.1,47.0,30.12,ENE,57,0.0,0.0,96,0.00,,,0.00,0,Wunderground v.1.15,2013-09-26 07:16:00,
2013-09-26 02:17:00,48.1,47.0,30.12,ENE,57,0.0,0.0,96,0.00,,,0.00,0,Wunderground v.1.15,2013-09-26 07:17:00,
2013-09-26 02:18:00,48.1,47.3,30.12,ENE,57,0.0,0.0,97,0.00,,,0.00,0,Wunderground v.1.15,2013-09-26 07:18:00,
2013-09-26 02:22:00,48.1,47.3,30.12,ENE,57,0.0,0.0,97,0.00,,,0.00,0,Wunderground v.1.15,2013-09-26 07:22:00,
2013-09-26 02:23:00,48.1,47.0,30.12,ENE,57,0.0,0.0,96,0.00,,,0.00,0,Wunderground v.1.15,2013-09-26 07:23:00,
2013-09-26 02:27:00,48.1,47.0,30.12,ENE,57,0.0,0.0,96,0.00,,,0.00,0,Wunderground v.1.15,2013-09-26 07:27:00,
2013-09-26 02:29:00,48.1,47.0,30.11,ENE,57,0.0,0.0,96,0.00,,,0.00,0,Wunderground v.1.15,2013-09-26 07:29:00,
2013-09-26 02:32:00,48.2,48.2,30.12,ENE,57,0.0,0.0,100,0.00,,,0.00,0,Wunderground v.1.15,2013-09-26 07:32:00,
2013-09-26 02:33:00,48.2,47.4,30.12,ENE,57,0.0,0.0,97,0.00,,,0.00,0,Wunderground v.1.15,2013-09-26 07:33:00,
2013-09-26 02:35:00,48.2,47.4,30.12,ENE,57,0.0,0.0,97,0.00,,,0.00,0,Wunderground v.1.15,2013-09-26 07:35:00,
2013-09-26 02:37:00,48.3,47.5,30.12,ENE,57,0.0,0.0,97,0.00,,,0.00,0,Wunderground v.1.15,2013-09-26 07:37:00,
2013-09-26 02:38:00,48.2,47.1,30.12,ENE,57,0.0,0.0,96,0.00,,,0.00,0,Wunderground v.1.15,2013-09-26 07:38:00,
2013-09-26 02:39:00,48.2,47.1,30.12,ENE,57,0.0,0.0,96,0.00,,,0.00,0,Wunderground v.1.15,2013-09-26 07:39:00,
2013-09-26 02:40:00,48.2,47.1,30.12,ENE,57,0.0,0.0,96,0.00,,,0.00,0,Wunderground v.1.15,2013-09-26 07:40:00,
2013-09-26 02:42:00,48.1,47.0,30.12,ENE,57,0.0,0.0,96,0.00,,,0.00,0,Wunderground v.1.15,2013-09-26 07:42:00,
2013-09-26 02:44:00,48.1,47.0,30.12,ENE,57,0.0,0.0,96,0.00,,,0.00,0,Wunderground v.1.15,2013-09-26 07:44:00,
2013-09-26 02:45:00,48.1,47.0,30.12,ENE,57,0.0,0.0,96,0.00,,,0.00,0,Wunderground v.1.15,2013-09-26 07:45:00,
2013-09-26 02:47:00,48.1,47.0,30.12,ENE,57,0.0,0.0,96,0.00,,,0.00,0,Wunderground v.1.15,2013-09-26 07:47:00,
2013-09-26 02:48:00,48.1,47.0,30.12,ENE,57,0.0,0.0,96,0.00,,,0.00,0,Wunderground v.1.15,2013-09-26 07:48:00,
2013-09-26 02:49:00,48.1,47.0,30.12,ENE,57,0.0,0.0,96,0.00,,,0.00,0,Wunderground v.1.15,2013-09-26 07:49:00,
2013-09-26 02:50:00,48.1,47.0,30.12,ENE,57,0.0,0.0,96,0.00,,,0.00,0,Wunderground v.1.15,2013-09-26 07:50:00,
2013-09-26 02:51:00,48.1,47.0,30.12,ENE,57,0.0,0.0,96,0.00,,,0.00,0,Wunderground v.1.15,2013-09-26 07:51:00,
2013-09-26 02:53:00,48.2,47.1,30.12,ENE,57,0.0,0.0,96,0.00,,,0.00,0,Wunderground v.1.15,2013-09-26 07:53:00,
2013-09-26 02:54:00,48.1,47.0,30.12,ENE,57,0.0,0.0,96,0.00,,,0.00,0,Wunderground v.1.15,2013-09-26 07:54:00,
2013-09-26 02:56:00,48.1,47.0,30.12,ENE,57,0.0,0.0,96,0.00,,,0.00,0,Wunderground v.1.15,2013-09-26 07:56:00,
2013-09-26 02:58:00,48.1,47.0,30.12,ENE,57,0.0,0.0,96,0.00,,,0.00,0,Wunderground v.1.15,2013-09-26 07:58:00,
2013-09-26 02:59:00,48.1,47.0,30.12,ENE,57,0.0,0.0,96,0.00,,,0.00,0,Wunderground v.1.15,2013-09-26 07:59:00,
2013-09-26 03:01:00,48.0,46.9,30.12,ENE,57,0.0,0.0,96,0.00,,,0.00,0,Wunderground v.1.15,2013-09-26 08:01:00,
2013-09-26 03:03:00,47.8,46.7,30.12,ENE,57,0.0,0.0,96,0.00,,,0.00,0,Wunderground v.1.15,2013-09-26 08:03:00,
2013-09-26 03:04:00,47.8,46.7,30.12,ENE,57,0.0,0.0,96,0.00,,,0.00,0,Wunderground v.1.15,2013-09-26 08:04:00,
2013-09-26 03:07:00,47.6,46.5,30.12,ENE,57,0.0,0.0,96,0.00,,,0.01,0,Wunderground v.1.15,2013-09-26 08:07:00,
2013-09-26 03:08:00,47.5,46.4,30.12,ENE,57,0.0,1.0,96,0.00,,,0.01,0,Wunderground v.1.15,2013-09-26 08:08:00,
2013-09-26 03:09:00,47.5,46.4,30.12,ENE,57,0.0,1.0,96,0.00,,,0.01,0,Wunderground v.1.15,2013-09-26 08:09:00,
2013-09-26 03:12:00,47.4,46.3,30.12,ENE,57,0.0,0.0,96,0.00,,,0.01,0,Wunderground v.1.15,2013-09-26 08:12:00,
2013-09-26 03:13:00,47.4,46.3,30.12,ENE,57,0.0,0.0,96,0.00,,,0.01,0,Wunderground v.1.15,2013-09-26 08:13:00,
2013-09-26 03:14:00,47.5,46.4,30.13,ENE,57,0.0,0.0,96,0.00,,,0.01,0,Wunderground v.1.15,2013-09-26 08:14:00,
2013-09-26 03:17:00,47.5,46.7,30.12,ENE,57,0.0,0.0,97,0.00,,,0.01,0,Wunderground v.1.15,2013-09-26 08:17:00,
2013-09-26 03:18:00,47.5,46.7,30.12,ENE,57,0.0,0.0,97,0.00,,,0.01,0,Wunderground v.1.15,2013-09-26 08:18:00,
2013-09-26 03:19:00,47.7,46.9,30.13,ENE,57,0.0,0.0,97,0.00,,,0.01,0,Wunderground v.1.15,2013-09-26 08:19:00,
2013-09-26 03:20:00,47.7,46.9,30.13,ENE,57,0.0,0.0,97,0.00,,,0.01,0,Wunderground v.1.15,2013-09-26 08:20:00,
2013-09-26 03:22:00,47.8,47.0,30.12,ENE,57,0.0,0.0,97,0.00,,,0.01,0,Wunderground v.1.15,2013-09-26 08:22:00,
2013-09-26 03:23:00,47.8,47.0,30.12,ENE,57,0.0,0.0,97,0.00,,,0.01,0,Wunderground v.1.15,2013-09-26 08:23:00,
2013-09-26 03:24:00,47.9,47.1,30.13,ENE,57,0.0,0.0,97,0.00,,,0.01,0,Wunderground v.1.15,2013-09-26 08:24:00,
2013-09-26 03:26:00,47.9,47.1,30.12,ENE,57,0.0,0.0,97,0.00,,,0.01,0,Wunderground v.1.15,2013-09-26 08:26:00,
2013-09-26 03:27:00,47.9,47.1,30.12,ENE,57,0.0,0.0,97,0.00,,,0.01,0,Wunderground v.1.15,2013-09-26 08:27:00,
2013-09-26 03:28:00,48.0,47.2,30.12,ENE,57,0.0,0.0,97,0.00,,,0.01,0,Wunderground v.1.15,2013-09-26 08:28:00,
2013-09-26 03:30:00,48.1,47.3,30.13,ENE,57,0.0,0.0,97,0.00,,,0.01,0,Wunderground v.1.15,2013-09-26 08:30:00,
2013-09-26 03:31:00,48.1,47.3,30.13,ENE,57,0.0,0.0,97,0.00,,,0.01,0,Wunderground v.1.15,2013-09-26 08:31:00,
2013-09-26 03:32:00,48.1,47.3,30.13,ENE,57,0.0,0.0,97,0.00,,,0.01,0,Wunderground v.1.15,2013-09-26 08:32:00,
2013-09-26 03:33:00,48.1,47.3,30.13,ENE,57,0.0,0.0,97,0.00,,,0.01,0,Wunderground v.1.15,2013-09-26 08:33:00,
2013-09-26 03:35:00,48.2,47.4,30.12,ENE,57,0.0,0.0,97,0.00,,,0.01,0,Wunderground v.1.15,2013-09-26 08:35:00,
2013-09-26 03:36:00,48.2,47.4,30.12,ENE,57,0.0,0.0,97,0.00,,,0.01,0,Wunderground v.1.15,2013-09-26 08:36:00,
2013-09-26 03:38:00,48.3,47.5,30.13,ENE,57,0.0,0.0,97,0.00,,,0.01,0,Wunderground v.1.15,2013-09-26 08:38:00,
2013-09-26 03:40:00,48.3,47.5,30.13,ENE,57,0.0,0.0,97,0.00,,,0.01,0,Wunderground v.1.15,2013-09-26 08:40:00,
2013-09-26 03:41:00,48.3,47.5,30.13,ENE,57,0.0,0.0,97,0.00,,,0.01,0,Wunderground v.1.15,2013-09-26 08:41:00,
2013-09-26 03:43:00,48.4,47.6,30.13,ENE,57,0.0,0.0,97,0.00,,,0.01,0,Wunderground v.1.15,2013-09-26 08:43:00,
2013-09-26 03:45:00,48.4,47.6,30.13,ENE,57,0.0,0.0,97,0.00,,,0.01,0,Wunderground v.1.15,2013-09-26 08:45:00,
2013-09-26 03:46:00,48.4,47.6,30.13,ENE,57,0.0,0.0,97,0.00,,,0.01,0,Wunderground v.1.15,2013-09-26 08:46:00,
2013-09-26 03:48:00,48.4,47.6,30.13,ENE,57,0.0,0.0,97,0.00,,,0.01,0,Wunderground v.1.15,2013-09-26 08:48:00,
2013-09-26 03:49:00,48.4,47.6,30.13,ENE,57,0.0,0.0,97,0.00,,,0.01,0,Wunderground v.1.15,2013-09-26 08:49:00,
2013-09-26 03:50:00,48.5,47.7,30.13,ENE,57,0.0,0.0,97,0.00,,,0.01,0,Wunderground v.1.15,2013-09-26 08:50:00,
2013-09-26 03:51:00,48.5,47.7,30.13,ENE,57,0.0,0.0,97,0.00,,,0.01,0,Wunderground v.1.15,2013-09-26 08:51:00,
2013-09-26 03:53:00,48.5,47.7,30.13,ENE,57,0.0,0.0,97,0.00,,,0.01,0,Wunderground v.1.15,2013-09-26 08:53:00,
2013-09-26 03:54:00,48.5,47.7,30.13,ENE,57,0.0,0.0,97,0.00,,,0.01,0,Wunderground v.1.15,2013-09-26 08:54:00,
2013-09-26 03:55:00,48.5,47.7,30.13,ENE,57,0.0,0.0,97,0.00,,,0.01,0,Wunderground v.1.15,2013-09-26 08:55:00,
2013-09-26 03:57:00,48.5,47.7,30.12,ENE,57,0.0,0.0,97,0.00,,,0.01,0,Wunderground v.1.15,2013-09-26 08:57:00,
2013-09-26 03:59:00,48.5,47.7,30.13,ENE,57,0.0,0.0,97,0.00,,,0.01,0,Wunderground v.1.15,2013-09-26 08:59:00,
2013-09-26 04:01:00,48.5,47.7,30.13,ENE,57,0.0,0.0,97,0.00,,,0.01,0,Wunderground v.1.15,2013-09-26 09:01:00,
2013-09-26 04:02:00,48.5,47.7,30.13,ENE,57,0.0,0.0,97,0.00,,,0.01,0,Wunderground v.1.15,2013-09-26 09:02:00,
2013-09-26 04:04:00,48.5,47.7,30.13,ENE,57,0.0,0.0,97,0.00,,,0.01,0,Wunderground v.1.15,2013-09-26 09:04:00,
2013-09-26 04:06:00,48.5,47.7,30.13,ENE,57,0.0,0.0,97,0.00,,,0.01,0,Wunderground v.1.15,2013-09-26 09:06:00,
2013-09-26 04:07:00,48.5,47.7,30.13,ENE,57,0.0,0.0,97,0.00,,,0.01,0,Wunderground v.1.15,2013-09-26 09:07:00,
2013-09-26 04:09:00,48.4,47.6,30.13,ENE,57,0.0,0.0,97,0.00,,,0.01,0,Wunderground v.1.15,2013-09-26 09:09:00,
2013-09-26 04:11:00,48.3,47.5,30.13,ENE,57,0.0,0.0,97,0.00,,,0.01,0,Wunderground v.1.15,2013-09-26 09:11:00,
2013-09-26 04:12:00,48.3,47.5,30.13,ENE,57,0.0,0.0,97,0.00,,,0.01,0,Wunderground v.1.15,2013-09-26 09:12:00,
2013-09-26 04:14:00,48.2,47.4,30.13,ENE,57,0.0,0.0,97,0.00,,,0.01,0,Wunderground v.1.15,2013-09-26 09:14:00,
2013-09-26 04:15:00,48.2,47.4,30.13,ENE,57,0.0,0.0,97,0.00,,,0.01,0,Wunderground v.1.15,2013-09-26 09:15:00,
2013-09-26 04:16:00,48.2,47.1,30.13,ENE,57,0.0,0.0,96,0.00,,,0.01,0,Wunderground v.1.15,2013-09-26 09:16:00,
2013-09-26 04:17:00,48.1,47.0,30.13,ENE,57,0.0,1.0,96,0.00,,,0.01,0,Wunderground v.1.15,2013-09-26 09:17:00,
2013-09-26 04:19:00,48.1,47.3,30.13,ENE,57,0.0,0.0,97,0.00,,,0.01,0,Wunderground v.1.15,2013-09-26 09:19:00,
2013-09-26 04:20:00,48.1,47.3,30.13,ENE,57,0.0,0.0,97,0.00,,,0.01,0,Wunderground v.1.15,2013-09-26 09:20:00,
2013-09-26 04:22:00,48.0,46.9,30.13,ENE,57,0.0,0.0,96,0.00,,,0.01,0,Wunderground v.1.15,2013-09-26 09:22:00,
2013-09-26 04:24:00,48.0,47.2,30.13,ENE,57,0.0,0.0,97,0.00,,,0.01,0,Wunderground v.1.15,2013-09-26 09:24:00,
2013-09-26 04:25:00,48.0,47.2,30.13,ENE,57,0.0,0.0,97,0.00,,,0.01,0,Wunderground v.1.15,2013-09-26 09:25:00,
2013-09-26 04:27:00,48.0,47.2,30.13,ENE,57,0.0,0.0,97,0.00,,,0.01,0,Wunderground v.1.15,2013-09-26 09:27:00,
2013-09-26 04:29:00,48.0,47.2,30.14,ENE,57,0.0,0.0,97,0.00,,,0.01,0,Wunderground v.1.15,2013-09-26 09:29:00,
2013-09-26 04:30:00,48.0,47.2,30.14,ENE,57,0.0,0.0,97,0.00,,,0.01,0,Wunderground v.1.15,2013-09-26 09:30:00,
2013-09-26 04:31:00,48.0,47.2,30.14,ENE,57,0.0,0.0,97,0.00,,,0.01,0,Wunderground v.1.15,2013-09-26 09:31:00,
2013-09-26 04:32:00,48.0,47.2,30.14,ENE,57,0.0,0.0,97,0.00,,,0.01,0,Wunderground v.1.15,2013-09-26 09:32:00,
2013-09-26 04:34:00,48.0,47.2,30.14,ENE,57,0.0,0.0,97,0.00,,,0.01,0,Wunderground v.1.15,2013-09-26 09:34:00,
2013-09-26 04:35:00,48.0,47.2,30.14,ENE,57,0.0,0.0,97,0.00,,,0.01,0,Wunderground v.1.15,2013-09-26 09:35:00,
2013-09-26 04:36:00,48.0,47.2,30.14,ENE,57,0.0,0.0,97,0.00,,,0.01,0,Wunderground v.1.15,2013-09-26 09:36:00,
2013-09-26 04:37:00,48.0,47.2,30.14,ENE,57,0.0,0.0,97,0.00,,,0.01,0,Wunderground v.1.15,2013-09-26 09:37:00,
2013-09-26 04:40:00,48.0,47.2,30.14,ENE,57,0.0,0.0,97,0.00,,,0.01,0,Wunderground v.1.15,2013-09-26 09:40:00,
2013-09-26 04:41:00,48.1,47.3,30.14,ENE,57,0.0,0.0,97,0.00,,,0.01,0,Wunderground v.1.15,2013-09-26 09:41:00,
2013-09-26 04:42:00,48.0,47.2,30.14,ENE,57,0.0,0.0,97,0.00,,,0.01,0,Wunderground v.1.15,2013-09-26 09:42:00,
2013-09-26 04:45:00,48.0,47.2,30.14,ENE,57,0.0,0.0,97,0.00,,,0.01,0,Wunderground v.1.15,2013-09-26 09:45:00,
2013-09-26 04:46:00,48.0,47.2,30.14,ENE,57,0.0,0.0,97,0.00,,,0.01,0,Wunderground v.1.15,2013-09-26 09:46:00,
2013-09-26 04:47:00,48.0,47.2,30.14,ENE,57,0.0,0.0,97,0.00,,,0.01,0,Wunderground v.1.15,2013-09-26 09:47:00,
2013-09-26 04:50:00,47.9,47.1,30.14,ENE,57,0.0,0.0,97,0.00,,,0.01,0,Wunderground v.1.15,2013-09-26 09:50:00,
2013-09-26 04:51:00,47.9,47.1,30.14,ENE,57,0.0,0.0,97,0.00,,,0.01,0,Wunderground v.1.15,2013-09-26 09:51:00,
2013-09-26 04:52:00,47.9,47.1,30.14,ENE,57,0.0,0.0,97,0.00,,,0.01,0,Wunderground v.1.15,2013-09-26 09:52:00,
2013-09-26 04:53:00,47.9,47.1,30.14,ENE,57,0.0,0.0,97,0.00,,,0.01,0,Wunderground v.1.15,2013-09-26 09:53:00,
2013-09-26 04:55:00,47.8,47.0,30.14,ENE,57,0.0,0.0,97,0.00,,,0.01,0,Wunderground v.1.15,2013-09-26 09:55:00,
2013-09-26 04:56:00,47.7,46.9,30.14,ENE,57,0.0,0.0,97,0.00,,,0.01,0,Wunderground v.1.15,2013-09-26 09:56:00,
2013-09-26 04:57:00,47.7,46.9,30.14,ENE,57,0.0,0.0,97,0.00,,,0.01,0,Wunderground v.1.15,2013-09-26 09:57:00,
2013-09-26 04:58:00,47.6,46.5,30.14,ENE,57,0.0,0.0,96,0.00,,,0.01,0,Wunderground v.1.15,2013-09-26 09:58:00,
2013-09-26 05:00:00,47.5,46.4,30.14,ENE,57,0.0,0.0,96,0.00,,,0.01,0,Wunderground v.1.15,2013-09-26 10:00:00,
2013-09-26 05:01:00,47.5,46.4,30.14,ENE,57,0.0,0.0,96,0.00,,,0.01,0,Wunderground v.1.15,2013-09-26 10:01:00,
2013-09-26 05:02:00,47.4,46.3,30.14,ENE,57,0.0,0.0,96,0.00,,,0.01,0,Wunderground v.1.15,2013-09-26 10:02:00,
2013-09-26 05:03:00,47.3,46.2,30.14,ENE,57,0.0,0.0,96,0.00,,,0.01,0,Wunderground v.1.15,2013-09-26 10:03:00,
2013-09-26 05:05:00,47.2,46.1,30.14,ENE,57,0.0,0.0,96,0.00,,,0.01,0,Wunderground v.1.15,2013-09-26 10:05:00,
2013-09-26 05:06:00,47.2,46.1,30.14,ENE,57,0.0,0.0,96,0.00,,,0.01,0,Wunderground v.1.15,2013-09-26 10:06:00,
2013-09-26 05:07:00,47.2,46.1,30.14,ENE,57,0.0,0.0,96,0.00,,,0.01,0,Wunderground v.1.15,2013-09-26 10:07:00,
2013-09-26 05:09:00,47.1,46.0,30.14,ENE,57,0.0,0.0,96,0.00,,,0.01,0,Wunderground v.1.15,2013-09-26 10:09:00,
2013-09-26 05:11:00,47.1,46.0,30.14,ENE,57,0.0,0.0,96,0.00,,,0.01,0,Wunderground v.1.15,2013-09-26 10:11:00,
2013-09-26 05:12:00,47.0,46.2,30.14,ENE,57,0.0,0.0,97,0.00,,,0.01,0,Wunderground v.1.15,2013-09-26 10:12:00,
2013-09-26 05:13:00,47.0,46.2,30.14,ENE,57,0.0,0.0,97,0.00,,,0.01,0,Wunderground v.1.15,2013-09-26 10:13:00,
2013-09-26 05:14:00,47.0,46.2,30.14,ENE,57,0.0,0.0,97,0.00,,,0.01,0,Wunderground v.1.15,2013-09-26 10:14:00,
2013-09-26 05:16:00,47.0,46.2,30.14,ENE,57,0.0,0.0,97,0.00,,,0.01,0,Wunderground v.1.15,2013-09-26 10:16:00,
2013-09-26 05:17:00,47.0,46.2,30.14,ENE,57,0.0,0.0,97,0.00,,,0.01,0,Wunderground v.1.15,2013-09-26 10:17:00,
2013-09-26 05:18:00,47.0,46.2,30.14,ENE,57,0.0,0.0,97,0.00,,,0.01,0,Wunderground v.1.15,2013-09-26 10:18:00,
2013-09-26 05:19:00,47.0,46.2,30.14,ENE,57,0.0,0.0,97,0.00,,,0.01,0,Wunderground v.1.15,2013-09-26 10:19:00,
2013-09-26 05:21:00,47.0,46.2,30.14,ENE,57,0.0,0.0,97,0.00,,,0.01,0,Wunderground v.1.15,2013-09-26 10:21:00,
2013-09-26 05:22:00,47.0,46.2,30.15,ENE,57,0.0,0.0,97,0.00,,,0.01,0,Wunderground v.1.15,2013-09-26 10:22:00,
2013-09-26 05:23:00,47.0,46.2,30.14,ENE,57,0.0,0.0,97,0.00,,,0.01,0,Wunderground v.1.15,2013-09-26 10:23:00,
2013-09-26 05:24:00,47.0,46.2,30.14,ENE,57,0.0,0.0,97,0.00,,,0.01,0,Wunderground v.1.15,2013-09-26 10:24:00,
2013-09-26 05:26:00,47.0,46.2,30.14,ENE,57,0.0,0.0,97,0.00,,,0.01,0,Wunderground v.1.15,2013-09-26 10:26:00,
2013-09-26 05:27:00,47.1,46.3,30.14,ENE,57,0.0,0.0,97,0.00,,,0.01,0,Wunderground v.1.15,2013-09-26 10:27:00,
2013-09-26 05:28:00,47.1,46.3,30.14,ENE,57,0.0,0.0,97,0.00,,,0.01,0,Wunderground v.1.15,2013-09-26 10:28:00,
2013-09-26 05:29:00,47.1,46.3,30.14,ENE,57,0.0,0.0,97,0.00,,,0.01,0,Wunderground v.1.15,2013-09-26 10:29:00,
2013-09-26 05:30:00,47.1,46.3,30.14,ENE,57,0.0,0.0,97,0.00,,,0.01,0,Wunderground v.1.15,2013-09-26 10:30:00,
2013-09-26 05:32:00,47.1,46.3,30.14,ENE,57,0.0,0.0,97,0.00,,,0.01,0,Wunderground v.1.15,2013-09-26 10:32:00,
2013-09-26 05:33:00,47.2,46.4,30.14,ENE,57,0.0,0.0,97,0.00,,,0.01,0,Wunderground v.1.15,2013-09-26 10:33:00,
2013-09-26 05:35:00,47.2,46.4,30.14,ENE,57,0.0,0.0,97,0.00,,,0.01,0,Wunderground v.1.15,2013-09-26 10:35:00,
2013-09-26 05:37:00,47.2,46.4,30.14,ENE,57,0.0,1.0,97,0.00,,,0.01,0,Wunderground v.1.15,2013-09-26 10:37:00,
2013-09-26 05:38:00,47.2,46.4,30.14,ENE,57,0.0,1.0,97,0.00,,,0.01,0,Wunderground v.1.15,2013-09-26 10:38:00,
2013-09-26 05:40:00,47.3,46.5,30.15,ENE,57,0.0,0.0,97,0.00,,,0.01,0,Wunderground v.1.15,2013-09-26 10:40:00,
2013-09-26 05:43:00,47.3,46.5,30.15,ENE,57,0.0,0.0,97,0.00,,,0.01,0,Wunderground v.1.15,2013-09-26 10:43:00,
2013-09-26 05:44:00,47.3,46.5,30.15,ENE,57,0.0,0.0,97,0.00,,,0.01,0,Wunderground v.1.15,2013-09-26 10:44:00,
2013-09-26 05:45:00,47.3,46.5,30.15,ENE,57,0.0,0.0,97,0.00,,,0.01,0,Wunderground v.1.15,2013-09-26 10:45:00,
2013-09-26 05:46:00,47.3,46.5,30.15,ENE,57,0.0,0.0,97,0.00,,,0.01,0,Wunderground v.1.15,2013-09-26 10:46:00,
2013-09-26 05:48:00,47.4,46.6,30.15,ENE,57,0.0,0.0,97,0.00,,,0.01,0,Wunderground v.1.15,2013-09-26 10:48:00,
2013-09-26 05:49:00,47.4,46.6,30.15,ENE,57,0.0,0.0,97,0.00,,,0.01,0,Wunderground v.1.15,2013-09-26 10:49:00,
2013-09-26 05:50:00,47.4,46.6,30.15,ENE,57,0.0,1.0,97,0.00,,,0.01,0,Wunderground v.1.15,2013-09-26 10:50:00,
2013-09-26 05:51:00,47.4,46.6,30.15,ENE,57,0.0,1.0,97,0.00,,,0.01,0,Wunderground v.1.15,2013-09-26 10:51:00,
2013-09-26 05:53:00,47.4,46.6,30.15,ENE,57,0.0,1.0,97,0.00,,,0.01,0,Wunderground v.1.15,2013-09-26 10:53:00,
2013-09-26 05:54:00,47.4,46.6,30.15,ENE,57,0.0,1.0,97,0.00,,,0.01,0,Wunderground v.1.15,2013-09-26 10:54:00,
2013-09-26 05:55:00,47.4,46.6,30.15,ENE,57,0.0,1.0,97,0.00,,,0.01,0,Wunderground v.1.15,2013-09-26 10:55:00,
2013-09-26 05:56:00,47.4,46.6,30.15,ENE,57,0.0,1.0,97,0.00,,,0.01,0,Wunderground v.1.15,2013-09-26 10:56:00,
2013-09-26 05:58:00,47.4,46.6,30.15,ENE,57,0.0,1.0,97,0.00,,,0.01,0,Wunderground v.1.15,2013-09-26 10:58:00,
2013-09-26 05:59:00,47.4,46.6,30.15,ENE,57,0.0,1.0,97,0.00,,,0.01,0,Wunderground v.1.15,2013-09-26 10:59:00,
2013-09-26 06:00:00,47.4,46.6,30.15,ENE,57,0.0,0.0,97,0.00,,,0.01,0,Wunderground v.1.15,2013-09-26 11:00:00,
2013-09-26 06:01:00,47.4,46.6,30.15,ENE,57,0.0,0.0,97,0.00,,,0.01,0,Wunderground v.1.15,2013-09-26 11:01:00,
2013-09-26 06:04:00,47.4,46.6,30.15,ENE,57,0.0,0.0,97,0.00,,,0.01,0,Wunderground v.1.15,2013-09-26 11:04:00,
2013-09-26 06:06:00,47.4,46.6,30.15,ENE,57,0.0,0.0,97,0.00,,,0.01,0,Wunderground v.1.15,2013-09-26 11:06:00,
2013-09-26 06:07:00,47.5,46.7,30.15,ENE,57,0.0,0.0,97,0.00,,,0.01,0,Wunderground v.1.15,2013-09-26 11:07:00,
2013-09-26 06:09:00,47.5,46.7,30.15,ENE,57,0.0,0.0,97,0.00,,,0.01,0,Wunderground v.1.15,2013-09-26 11:09:00,
2013-09-26 06:10:00,47.6,46.8,30.15,ENE,57,0.0,0.0,97,0.00,,,0.01,0,Wunderground v.1.15,2013-09-26 11:10:00,
2013-09-26 06:11:00,47.6,46.8,30.15,ENE,57,0.0,0.0,97,0.00,,,0.01,0,Wunderground v.1.15,2013-09-26 11:11:00,
2013-09-26 06:12:00,47.6,46.8,30.15,ENE,57,0.0,0.0,97,0.00,,,0.01,0,Wunderground v.1.15,2013-09-26 11:12:00,
2013-09-26 06:14:00,47.6,46.8,30.15,ENE,57,0.0,0.0,97,0.00,,,0.01,0,Wunderground v.1.15,2013-09-26 11:14:00,
2013-09-26 06:15:00,47.7,46.9,30.15,ENE,57,0.0,1.0,97,0.00,,,0.01,0,Wunderground v.1.15,2013-09-26 11:15:00,
2013-09-26 06:16:00,47.6,46.8,30.15,ENE,57,0.0,1.0,97,0.00,,,0.01,0,Wunderground v.1.15,2013-09-26 11:16:00,
2013-09-26 06:17:00,47.7,46.9,30.15,ENE,57,0.0,1.0,97,0.00,,,0.01,0,Wunderground v.1.15,2013-09-26 11:17:00,
2013-09-26 06:19:00,47.6,46.8,30.15,ENE,57,0.0,1.0,97,0.00,,,0.01,0,Wunderground v.1.15,2013-09-26 11:19:00,
2013-09-26 06:20:00,47.7,46.9,30.15,ENE,57,0.0,0.0,97,0.00,,,0.01,0,Wunderground v.1.15,2013-09-26 11:20:00,
2013-09-26 06:21:00,47.7,46.9,30.15,ENE,57,0.0,0.0,97,0.00,,,0.01,0,Wunderground v.1.15,2013-09-26 11:21:00,
2013-09-26 06:23:00,47.7,46.9,30.15,ENE,57,0.0,0.0,97,0.00,,,0.01,0,Wunderground v.1.15,2013-09-26 11:23:00,
2013-09-26 06:24:00,47.7,46.9,30.15,ENE,57,0.0,0.0,97,0.00,,,0.01,0,Wunderground v.1.15,2013-09-26 11:24:00,
2013-09-26 06:25:00,47.7,46.9,30.15,ENE,57,0.0,0.0,97,0.00,,,0.01,0,Wunderground v.1.15,2013-09-26 11:25:00,
2013-09-26 06:26:00,47.7,46.9,30.15,ENE,57,0.0,0.0,97,0.00,,,0.01,0,Wunderground v.1.15,2013-09-26 11:26:00,
2013-09-26 06:27:00,47.7,46.9,30.15,ENE,57,0.0,0.0,97,0.00,,,0.01,0,Wunderground v.1.15,2013-09-26 11:27:00,
2013-09-26 06:29:00,47.8,47.0,30.16,ENE,57,0.0,0.0,97,0.00,,,0.01,0,Wunderground v.1.15,2013-09-26 11:29:00,
2013-09-26 06:30:00,47.8,47.0,30.16,ENE,57,0.0,0.0,97,0.00,,,0.01,0,Wunderground v.1.15,2013-09-26 11:30:00,
2013-09-26 06:31:00,47.8,47.0,30.16,ENE,57,0.0,0.0,97,0.00,,,0.01,0,Wunderground v.1.15,2013-09-26 11:31:00,
2013-09-26 06:32:00,47.8,47.0,30.16,ENE,57,0.0,0.0,97,0.00,,,0.01,0,Wunderground v.1.15,2013-09-26 11:32:00,
2013-09-26 06:34:00,47.9,47.1,30.16,ENE,57,0.0,0.0,97,0.00,,,0.01,0,Wunderground v.1.15,2013-09-26 11:34:00,
2013-09-26 06:35:00,47.9,47.1,30.16,ENE,57,0.0,0.0,97,0.00,,,0.01,0,Wunderground v.1.15,2013-09-26 11:35:00,
2013-09-26 06:36:00,47.9,47.1,30.16,ENE,57,0.0,0.0,97,0.00,,,0.01,0,Wunderground v.1.15,2013-09-26 11:36:00,
2013-09-26 06:37:00,47.9,47.1,30.16,ENE,57,0.0,0.0,97,0.00,,,0.01,0,Wunderground v.1.15,2013-09-26 11:37:00,
2013-09-26 06:40:00,47.9,47.1,30.16,ENE,57,0.0,0.0,97,0.00,,,0.01,0,Wunderground v.1.15,2013-09-26 11:40:00,
2013-09-26 06:41:00,47.9,47.1,30.16,ENE,57,0.0,0.0,97,0.00,,,0.01,0,Wunderground v.1.15,2013-09-26 11:41:00,
2013-09-26 06:42:00,47.9,47.1,30.16,ENE,57,0.0,0.0,97,0.00,,,0.01,0,Wunderground v.1.15,2013-09-26 11:42:00,
2013-09-26 06:45:00,47.9,47.1,30.15,ENE,57,0.0,0.0,97,0.00,,,0.01,0,Wunderground v.1.15,2013-09-26 11:45:00,
2013-09-26 06:46:00,47.9,47.1,30.16,ENE,57,0.0,0.0,97,0.00,,,0.01,0,Wunderground v.1.15,2013-09-26 11:46:00,
2013-09-26 06:47:00,47.9,47.1,30.16,ENE,57,0.0,0.0,97,0.00,,,0.01,0,Wunderground v.1.15,2013-09-26 11:47:00,
2013-09-26 06:50:00,47.9,47.1,30.15,ENE,57,0.0,0.0,97,0.00,,,0.01,5,Wunderground v.1.15,2013-09-26 11:50:00,
2013-09-26 06:52:00,47.8,47.0,30.15,ENE,57,0.0,0.0,97,0.00,,,0.01,5,Wunderground v.1.15,2013-09-26 11:52:00,
2013-09-26 06:54:00,47.8,47.0,30.16,ENE,57,0.0,0.0,97,0.00,,,0.01,7,Wunderground v.1.15,2013-09-26 11:54:00,
2013-09-26 06:55:00,47.8,47.0,30.15,ENE,57,0.0,0.0,97,0.00,,,0.01,7,Wunderground v.1.15,2013-09-26 11:55:00,
2013-09-26 06:57:00,47.8,47.0,30.16,ENE,57,0.0,0.0,97,0.00,,,0.01,9,Wunderground v.1.15,2013-09-26 11:57:00,
2013-09-26 06:58:00,47.8,47.0,30.16,ENE,57,0.0,0.0,97,0.00,,,0.01,9,Wunderground v.1.15,2013-09-26 11:58:00,
2013-09-26 06:59:00,47.8,47.0,30.15,ENE,57,0.0,0.0,97,0.00,,,0.01,9,Wunderground v.1.15,2013-09-26 11:59:00,
2013-09-26 07:00:00,47.8,47.0,30.16,ENE,57,0.0,0.0,97,0.00,,,0.01,11,Wunderground v.1.15,2013-09-26 12:00:00,
2013-09-26 07:01:00,47.8,47.0,30.16,ENE,57,0.0,0.0,97,0.00,,,0.01,11,Wunderground v.1.15,2013-09-26 12:01:00,
2013-09-26 07:02:00,47.9,47.1,30.16,ENE,57,0.0,0.0,97,0.00,,,0.01,11,Wunderground v.1.15,2013-09-26 12:02:00,
2013-09-26 07:03:00,47.9,47.1,30.16,ENE,57,0.0,0.0,97,0.00,,,0.01,12,Wunderground v.1.15,2013-09-26 12:03:00,
2013-09-26 07:04:00,47.9,47.1,30.16,ENE,57,0.0,0.0,97,0.00,,,0.01,12,Wunderground v.1.15,2013-09-26 12:04:00,
2013-09-26 07:06:00,47.9,47.1,30.16,ENE,57,0.0,0.0,97,0.00,,,0.01,14,Wunderground v.1.15,2013-09-26 12:06:00,
2013-09-26 07:07:00,47.9,47.1,30.16,ENE,57,0.0,0.0,97,0.00,,,0.01,14,Wunderground v.1.15,2013-09-26 12:07:00,
2013-09-26 07:09:00,47.9,47.1,30.16,ENE,57,1.0,1.0,97,0.00,,,0.01,16,Wunderground v.1.15,2013-09-26 12:09:00,
2013-09-26 07:11:00,47.9,47.1,30.16,ENE,57,0.0,0.0,97,0.00,,,0.01,18,Wunderground v.1.15,2013-09-26 12:11:00,
2013-09-26 07:12:00,47.9,47.1,30.16,ENE,57,0.0,0.0,97,0.00,,,0.01,18,Wunderground v.1.15,2013-09-26 12:12:00,
2013-09-26 07:13:00,48.0,47.2,30.16,ENE,57,0.0,1.0,97,0.00,,,0.01,19,Wunderground v.1.15,2013-09-26 12:13:00,
2013-09-26 07:14:00,48.0,47.2,30.16,ENE,57,0.0,1.0,97,0.00,,,0.01,23,Wunderground v.1.15,2013-09-26 12:14:00,
2013-09-26 07:16:00,48.2,47.7,30.16,ENE,57,0.0,1.0,98,0.00,,,0.01,23,Wunderground v.1.15,2013-09-26 12:16:00,
2013-09-26 07:17:00,48.2,47.7,30.16,ENE,57,0.0,1.0,98,0.00,,,0.01,25,Wunderground v.1.15,2013-09-26 12:17:00,
2013-09-26 07:18:00,48.2,47.7,30.16,ENE,57,0.0,1.0,98,0.00,,,0.01,26,Wunderground v.1.15,2013-09-26 12:18:00,
2013-09-26 07:19:00,48.3,47.8,30.16,ENE,57,0.0,1.0,98,0.00,,,0.01,28,Wunderground v.1.15,2013-09-26 12:19:00,
2013-09-26 07:21:00,48.5,48.0,30.16,ENE,57,0.0,0.0,98,0.00,,,0.01,30,Wunderground v.1.15,2013-09-26 12:21:00,
2013-09-26 07:22:00,48.6,48.1,30.16,ENE,57,0.0,0.0,98,0.00,,,0.01,30,Wunderground v.1.15,2013-09-26 12:22:00,
2013-09-26 07:23:00,48.6,48.1,30.16,ENE,57,0.0,0.0,98,0.00,,,0.01,30,Wunderground v.1.15,2013-09-26 12:23:00,
2013-09-26 07:24:00,48.7,48.2,30.16,ENE,57,0.0,0.0,98,0.00,,,0.01,33,Wunderground v.1.15,2013-09-26 12:24:00,
2013-09-26 07:27:00,48.9,48.4,30.16,ENE,57,0.0,1.0,98,0.00,,,0.01,37,Wunderground v.1.15,2013-09-26 12:27:00,
2013-09-26 07:28:00,49.1,48.6,30.16,ENE,57,1.0,1.0,98,0.00,,,0.01,37,Wunderground v.1.15,2013-09-26 12:28:00,
2013-09-26 07:29:00,49.2,48.7,30.16,ENE,57,1.0,1.0,98,0.00,,,0.01,39,Wunderground v.1.15,2013-09-26 12:29:00,
2013-09-26 07:31:00,49.3,48.8,30.16,ENE,57,1.0,2.0,98,0.00,,,0.01,39,Wunderground v.1.15,2013-09-26 12:31:00,
2013-09-26 07:32:00,49.5,49.0,30.16,ENE,57,0.0,2.0,98,0.00,,,0.01,44,Wunderground v.1.15,2013-09-26 12:32:00,
2013-09-26 07:33:00,49.5,49.0,30.16,ENE,57,0.0,2.0,98,0.00,,,0.01,47,Wunderground v.1.15,2013-09-26 12:33:00,
2013-09-26 07:35:00,49.7,49.2,30.16,ENE,57,0.0,2.0,98,0.00,,,0.01,49,Wunderground v.1.15,2013-09-26 12:35:00,
2013-09-26 07:36:00,49.8,49.3,30.16,ENE,57,1.0,2.0,98,0.00,,,0.01,49,Wunderground v.1.15,2013-09-26 12:36:00,
2013-09-26 07:37:00,49.9,49.4,30.16,ENE,57,0.0,2.0,98,0.00,,,0.01,53,Wunderground v.1.15,2013-09-26 12:37:00,
2013-09-26 07:38:00,50.0,49.5,30.16,ENE,57,0.0,2.0,98,0.00,,,0.01,56,Wunderground v.1.15,2013-09-26 12:38:00,
2013-09-26 07:39:00,50.0,49.5,30.16,ENE,57,0.0,2.0,98,0.00,,,0.01,51,Wunderground v.1.15,2013-09-26 12:39:00,
2013-09-26 07:41:00,50.1,49.6,30.16,ENE,59,3.0,3.0,98,0.00,,,0.01,62,Wunderground v.1.15,2013-09-26 12:41:00,
2013-09-26 07:42:00,50.1,49.6,30.16,ENE,59,0.0,3.0,98,0.00,,,0.01,69,Wunderground v.1.15,2013-09-26 12:42:00,
2013-09-26 07:43:00,50.2,49.7,30.16,ENE,59,0.0,3.0,98,0.00,,,0.01,62,Wunderground v.1.15,2013-09-26 12:43:00,
2013-09-26 07:44:00,50.2,49.7,30.16,ENE,59,0.0,3.0,98,0.00,,,0.01,67,Wunderground v.1.15,2013-09-26 12:44:00,
2013-09-26 07:46:00,50.3,49.8,30.16,ENE,59,0.0,3.0,98,0.00,,,0.01,70,Wunderground v.1.15,2013-09-26 12:46:00,
2013-09-26 07:47:00,50.3,49.8,30.16,ENE,59,0.0,3.0,98,0.00,,,0.01,72,Wunderground v.1.15,2013-09-26 12:47:00,
2013-09-26 07:49:00,50.4,49.9,30.16,ENE,59,0.0,3.0,98,0.00,,,0.01,79,Wunderground v.1.15,2013-09-26 12:49:00,
2013-09-26 07:51:00,50.5,50.0,30.16,ENE,59,1.0,2.0,98,0.00,,,0.01,83,Wunderground v.1.15,2013-09-26 12:51:00,
2013-09-26 07:52:00,50.5,50.0,30.16,ENE,59,0.0,2.0,98,0.00,,,0.01,90,Wunderground v.1.15,2013-09-26 12:52:00,
2013-09-26 07:54:00,50.5,50.0,30.16,ENE,59,0.0,3.0,98,0.00,,,0.01,90,Wunderground v.1.15,2013-09-26 12:54:00,
2013-09-26 07:57:00,50.7,50.2,30.16,ENE,59,0.0,3.0,98,0.00,,,0.01,95,Wunderground v.1.15,2013-09-26 12:57:00,
2013-09-26 07:58:00,50.7,50.2,30.16,ENE,59,0.0,3.0,98,0.00,,,0.01,100,Wunderground v.1.15,2013-09-26 12:58:00,
2013-09-26 07:59:00,50.8,50.3,30.16,ENE,59,0.0,3.0,98,0.00,,,0.01,113,Wunderground v.1.15,2013-09-26 12:59:00,
2013-09-26 08:02:00,51.0,50.5,30.16,ENE,59,0.0,2.0,98,0.00,,,0.01,102,Wunderground v.1.15,2013-09-26 13:02:00,
2013-09-26 08:03:00,51.0,50.5,30.16,ENE,59,0.0,2.0,98,0.00,,,0.01,137,Wunderground v.1.15,2013-09-26 13:03:00,
2013-09-26 08:04:00,51.1,50.6,30.16,ENE,59,0.0,2.0,98,0.00,,,0.01,109,Wunderground v.1.15,2013-09-26 13:04:00,
2013-09-26 08:07:00,51.3,50.8,30.17,ENE,59,0.0,2.0,98,0.00,,,0.01,142,Wunderground v.1.15,2013-09-26 13:07:00,
2013-09-26 08:08:00,51.4,50.9,30.17,ENE,59,0.0,2.0,98,0.00,,,0.01,181,Wunderground v.1.15,2013-09-26 13:08:00,
2013-09-26 08:09:00,51.4,50.9,30.17,ENE,59,0.0,2.0,98,0.00,,,0.01,179,Wunderground v.1.15,2013-09-26 13:09:00,
2013-09-26 08:12:00,51.7,51.2,30.17,ENE,59,0.0,1.0,98,0.00,,,0.01,185,Wunderground v.1.15,2013-09-26 13:12:00,
2013-09-26 08:13:00,51.8,51.3,30.17,ENE,59,1.0,2.0,98,0.00,,,0.01,193,Wunderground v.1.15,2013-09-26 13:13:00,
2013-09-26 08:14:00,51.9,51.4,30.17,ENE,59,0.0,2.0,98,0.00,,,0.01,188,Wunderground v.1.15,2013-09-26 13:14:00,
2013-09-26 08:17:00,52.2,51.7,30.17,ENE,59,0.0,2.0,98,0.00,,,0.01,202,Wunderground v.1.15,2013-09-26 13:17:00,
2013-09-26 08:19:00,52.4,51.9,30.17,ENE,59,1.0,2.0,98,0.00,,,0.01,207,Wunderground v.1.15,2013-09-26 13:19:00,
2013-09-26 08:20:00,52.4,51.9,30.17,ENE,59,0.0,0.0,98,0.00,,,0.01,209,Wunderground v.1.15,2013-09-26 13:20:00,
2013-09-26 08:23:00,52.8,52.3,30.17,ENE,59,0.0,3.0,98,0.00,,,0.01,218,Wunderground v.1.15,2013-09-26 13:23:00,
2013-09-26 08:24:00,52.9,52.4,30.17,ENE,59,1.0,3.0,98,0.00,,,0.01,220,Wunderground v.1.15,2013-09-26 13:24:00,
2013-09-26 08:26:00,53.1,52.6,30.17,ENE,59,0.0,3.0,98,0.00,,,0.01,229,Wunderground v.1.15,2013-09-26 13:26:00,
2013-09-26 08:28:00,53.4,52.8,30.16,ENE,59,0.0,3.0,98,0.00,,,0.01,232,Wunderground v.1.15,2013-09-26 13:28:00,
2013-09-26 08:29:00,53.5,52.9,30.16,ENE,59,0.0,3.0,98,0.00,,,0.01,234,Wunderground v.1.15,2013-09-26 13:29:00,
2013-09-26 08:30:00,53.6,53.0,30.16,ENE,59,1.0,1.0,98,0.00,,,0.01,236,Wunderground v.1.15,2013-09-26 13:30:00,
2013-09-26 08:31:00,53.8,53.2,30.16,ENE,60,1.0,2.0,98,0.00,,,0.01,241,Wunderground v.1.15,2013-09-26 13:31:00,
2013-09-26 08:34:00,54.1,53.5,30.17,ENE,60,0.0,2.0,98,0.00,,,0.01,248,Wunderground v.1.15,2013-09-26 13:34:00,
2013-09-26 08:35:00,54.2,53.6,30.17,ENE,60,0.0,2.0,98,0.00,,,0.01,250,Wunderground v.1.15,2013-09-26 13:35:00,
2013-09-26 08:36:00,54.4,53.8,30.17,ENE,60,0.0,2.0,98,0.00,,,0.01,255,Wunderground v.1.15,2013-09-26 13:36:00,
2013-09-26 08:39:00,54.8,54.2,30.17,ENE,63,1.0,2.0,98,0.00,,,0.01,260,Wunderground v.1.15,2013-09-26 13:39:00,
2013-09-26 08:40:00,54.9,54.3,30.17,ENE,63,2.0,2.0,98,0.00,,,0.01,262,Wunderground v.1.15,2013-09-26 13:40:00,
2013-09-26 08:41:00,55.0,54.4,30.17,ENE,63,0.0,2.0,98,0.00,,,0.01,267,Wunderground v.1.15,2013-09-26 13:41:00,
2013-09-26 08:44:00,55.3,54.7,30.17,ENE,65,0.0,2.0,98,0.00,,,0.01,274,Wunderground v.1.15,2013-09-26 13:44:00,
2013-09-26 08:45:00,55.4,54.8,30.17,ENE,65,0.0,2.0,98,0.00,,,0.01,272,Wunderground v.1.15,2013-09-26 13:45:00,
2013-09-26 08:46:00,55.5,54.9,30.17,ENE,65,0.0,2.0,98,0.00,,,0.01,281,Wunderground v.1.15,2013-09-26 13:46:00,
2013-09-26 08:49:00,55.8,55.2,30.17,ENE,65,0.0,2.0,98,0.00,,,0.01,285,Wunderground v.1.15,2013-09-26 13:49:00,
2013-09-26 08:50:00,55.9,55.3,30.17,ENE,65,0.0,1.0,98,0.00,,,0.01,290,Wunderground v.1.15,2013-09-26 13:50:00,
2013-09-26 08:52:00,56.1,55.5,30.17,ENE,65,0.0,3.0,98,0.00,,,0.01,295,Wunderground v.1.15,2013-09-26 13:52:00,
2013-09-26 08:54:00,56.3,55.7,30.16,ENE,65,0.0,3.0,98,0.00,,,0.01,302,Wunderground v.1.15,2013-09-26 13:54:00,
2013-09-26 08:55:00,56.3,55.7,30.16,ENE,65,0.0,3.0,98,0.00,,,0.01,306,Wunderground v.1.15,2013-09-26 13:55:00,
2013-09-26 08:56:00,56.4,55.8,30.16,ENE,65,0.0,3.0,98,0.00,,,0.01,306,Wunderground v.1.15,2013-09-26 13:56:00,
2013-09-26 08:57:00,56.6,56.0,30.16,ENE,71,3.0,3.0,98,0.00,,,0.01,311,Wunderground v.1.15,2013-09-26 13:57:00,
2013-09-26 08:59:00,56.8,56.2,30.16,ENE,71,4.0,4.0,98,0.00,,,0.01,316,Wunderground v.1.15,2013-09-26 13:59:00,
2013-09-26 09:00:00,56.8,56.2,30.16,ENE,71,2.0,3.0,98,0.00,,,0.01,316,Wunderground v.1.15,2013-09-26 14:00:00,
2013-09-26 09:01:00,57.0,56.4,30.16,ENE,60,1.0,3.0,98,0.00,,,0.01,322,Wunderground v.1.15,2013-09-26 14:01:00,
2013-09-26 09:03:00,57.2,56.6,30.16,East,98,4.0,8.0,98,0.00,,,0.01,327,Wunderground v.1.15,2013-09-26 14:03:00,
2013-09-26 09:05:00,57.5,56.9,30.16,East,98,0.0,8.0,98,0.00,,,0.01,332,Wunderground v.1.15,2013-09-26 14:05:00,
2013-09-26 09:06:00,57.6,57.0,30.16,East,98,0.0,8.0,98,0.00,,,0.01,338,Wunderground v.1.15,2013-09-26 14:06:00,
2013-09-26 09:09:00,58.0,57.4,30.16,East,97,0.0,8.0,98,0.00,,,0.01,348,Wunderground v.1.15,2013-09-26 14:09:00,
2013-09-26 09:10:00,58.1,57.5,30.16,East,98,1.0,1.0,98,0.00,,,0.01,348,Wunderground v.1.15,2013-09-26 14:10:00,
2013-09-26 09:11:00,58.3,57.7,30.16,East,98,0.0,1.0,98,0.00,,,0.01,357,Wunderground v.1.15,2013-09-26 14:11:00,
2013-09-26 09:14:00,58.7,58.1,30.16,East,93,0.0,8.0,98,0.00,,,0.01,376,Wunderground v.1.15,2013-09-26 14:14:00,
2013-09-26 09:15:00,58.8,58.2,30.16,East,93,0.0,8.0,98,0.00,,,0.01,376,Wunderground v.1.15,2013-09-26 14:15:00,
2013-09-26 09:16:00,58.9,58.3,30.16,East,93,0.0,8.0,98,0.00,,,0.01,385,Wunderground v.1.15,2013-09-26 14:16:00,
2013-09-26 09:20:00,59.4,58.8,30.17,ESE,109,6.0,6.0,98,0.00,,,0.01,399,Wunderground v.1.15,2013-09-26 14:20:00,
2013-09-26 09:22:00,59.6,59.0,30.17,ESE,105,1.0,7.0,98,0.00,,,0.01,408,Wunderground v.1.15,2013-09-26 14:22:00,
2013-09-26 09:25:00,59.9,59.3,30.16,East,98,1.0,7.0,98,0.00,,,0.01,422,Wunderground v.1.15,2013-09-26 14:25:00,
2013-09-26 09:26:00,60.0,59.4,30.17,East,98,4.0,7.0,98,0.00,,,0.01,422,Wunderground v.1.15,2013-09-26 14:26:00,
2013-09-26 09:27:00,60.2,59.6,30.17,East,98,0.0,7.0,98,0.00,,,0.01,427,Wunderground v.1.15,2013-09-26 14:27:00,
2013-09-26 09:30:00,60.5,59.9,30.17,ESE,114,1.0,5.0,98,0.00,,,0.01,438,Wunderground v.1.15,2013-09-26 14:30:00,
2013-09-26 09:31:00,60.5,59.9,30.16,ESE,114,0.0,5.0,98,0.00,,,0.01,441,Wunderground v.1.15,2013-09-26 14:31:00,
2013-09-26 09:32:00,60.8,60.2,30.16,SE,131,6.0,9.0,98,0.00,,,0.01,448,Wunderground v.1.15,2013-09-26 14:32:00,
2013-09-26 09:33:00,60.8,59.9,30.16,ESE,109,11.0,11.0,97,0.00,,,0.01,448,Wunderground v.1.15,2013-09-26 14:33:00,
2013-09-26 09:35:00,61.1,60.2,30.17,SE,138,7.0,11.0,97,0.00,,,0.01,455,Wunderground v.1.15,2013-09-26 14:35:00,
2013-09-26 09:36:00,61.2,60.1,30.17,East,96,7.0,11.0,96,0.00,,,0.01,459,Wunderground v.1.15,2013-09-26 14:36:00,
2013-09-26 09:39:00,61.7,60.3,30.17,ESE,108,2.0,11.0,95,0.00,,,0.01,464,Wunderground v.1.15,2013-09-26 14:39:00,
2013-09-26 09:41:00,61.9,59.9,30.17,East,101,6.0,7.0,93,0.00,,,0.01,469,Wunderground v.1.15,2013-09-26 14:41:00,
2013-09-26 09:44:00,62.2,59.2,30.16,SE,128,8.0,9.0,90,0.00,,,0.01,478,Wunderground v.1.15,2013-09-26 14:44:00,
2013-09-26 09:45:00,62.4,59.4,30.16,ENE,71,5.0,9.0,90,0.00,,,0.01,482,Wunderground v.1.15,2013-09-26 14:45:00,
2013-09-26 09:46:00,62.5,59.5,30.16,SE,126,7.0,9.0,90,0.00,,,0.01,482,Wunderground v.1.15,2013-09-26 14:46:00,
2013-09-26 09:47:00,62.6,59.6,30.16,ESE,104,2.0,9.0,90,0.00,,,0.01,485,Wunderground v.1.15,2013-09-26 14:47:00,
2013-09-26 09:49:00,62.9,59.3,30.16,ESE,104,1.0,9.0,88,0.00,,,0.01,492,Wunderground v.1.15,2013-09-26 14:49:00,
2013-09-26 09:50:00,63.0,59.4,30.16,ESE,104,2.0,5.0,88,0.00,,,0.01,492,Wunderground v.1.15,2013-09-26 14:50:00,
2013-09-26 09:51:00,63.1,59.5,30.16,SE,126,8.0,10.0,88,0.00,,,0.01,494,Wunderground v.1.15,2013-09-26 14:51:00,
2013-09-26 09:52:00,63.2,59.3,30.16,SE,145,7.0,11.0,87,0.00,,,0.01,499,Wunderground v.1.15,2013-09-26 14:52:00,
2013-09-26 09:54:00,63.6,59.7,30.16,ESE,119,1.0,11.0,87,0.00,,,0.01,504,Wunderground v.1.15,2013-09-26 14:54:00,
2013-09-26 09:56:00,63.7,59.8,30.16,ESE,106,8.0,11.0,87,0.00,,,0.01,508,Wunderground v.1.15,2013-09-26 14:56:00,
2013-09-26 09:57:00,63.9,59.6,30.16,SE,124,2.0,11.0,86,0.00,,,0.01,512,Wunderground v.1.15,2013-09-26 14:57:00,
2013-09-26 10:01:00,64.5,59.9,30.16,SE,126,7.0,9.0,85,0.00,,,0.01,522,Wunderground v.1.15,2013-09-26 15:01:00,
2013-09-26 10:02:00,64.6,59.7,30.16,ESE,113,4.0,12.0,84,0.00,,,0.01,522,Wunderground v.1.15,2013-09-26 15:02:00,
2013-09-26 10:06:00,64.9,59.3,30.16,SSE,153,8.0,12.0,82,0.00,,,0.01,531,Wunderground v.1.15,2013-09-26 15:06:00,
2013-09-26 10:07:00,65.0,59.4,30.16,SE,142,0.0,12.0,82,0.00,,,0.01,534,Wunderground v.1.15,2013-09-26 15:07:00,
2013-09-26 10:08:00,65.1,59.5,30.16,SE,136,9.0,12.0,82,0.00,,,0.01,534,Wunderground v.1.15,2013-09-26 15:08:00,
2013-09-26 10:11:00,65.4,59.4,30.16,East,82,7.0,10.0,81,0.00,,,0.01,543,Wunderground v.1.15,2013-09-26 15:11:00,
2013-09-26 10:12:00,65.5,59.2,30.16,SE,135,10.0,10.0,80,0.00,,,0.01,545,Wunderground v.1.15,2013-09-26 15:12:00,
2013-09-26 10:13:00,65.6,59.3,30.16,SE,128,9.0,11.0,80,0.00,,,0.01,545,Wunderground v.1.15,2013-09-26 15:13:00,
2013-09-26 10:16:00,65.8,59.1,30.16,SE,132,5.0,11.0,79,0.00,,,0.01,555,Wunderground v.1.15,2013-09-26 15:16:00,
2013-09-26 10:17:00,65.8,59.1,30.16,ESE,123,1.0,11.0,79,0.00,,,0.01,557,Wunderground v.1.15,2013-09-26 15:17:00,
2013-09-26 10:18:00,65.8,59.1,30.16,SE,146,7.0,11.0,79,0.00,,,0.01,557,Wunderground v.1.15,2013-09-26 15:18:00,
2013-09-26 10:21:00,66.0,58.6,30.16,ESE,113,5.0,12.0,77,0.00,,,0.01,570,Wunderground v.1.15,2013-09-26 15:21:00,
2013-09-26 10:22:00,66.0,58.6,30.16,ESE,107,9.0,12.0,77,0.00,,,0.01,568,Wunderground v.1.15,2013-09-26 15:22:00,
2013-09-26 10:23:00,66.1,58.7,30.16,SSE,147,8.0,12.0,77,0.00,,,0.01,570,Wunderground v.1.15,2013-09-26 15:23:00,
2013-09-26 10:26:00,66.3,58.5,30.16,SE,137,5.0,12.0,76,0.00,,,0.01,578,Wunderground v.1.15,2013-09-26 15:26:00,
2013-09-26 10:27:00,66.3,58.5,30.16,SE,126,8.0,12.0,76,0.00,,,0.01,582,Wunderground v.1.15,2013-09-26 15:27:00,
2013-09-26 10:28:00,66.4,58.6,30.16,ESE,113,8.0,14.0,76,0.00,,,0.01,584,Wunderground v.1.15,2013-09-26 15:28:00,
2013-09-26 10:31:00,66.5,58.3,30.16,ESE,111,12.0,12.0,75,0.00,,,0.01,587,Wunderground v.1.15,2013-09-26 15:31:00,
2013-09-26 10:33:00,66.6,58.4,30.16,SE,132,9.0,12.0,75,0.00,,,0.01,591,Wunderground v.1.15,2013-09-26 15:33:00,
2013-09-26 10:34:00,66.6,58.1,30.16,ESE,102,8.0,13.0,74,0.00,,,0.01,596,Wunderground v.1.15,2013-09-26 15:34:00,
2013-09-26 10:36:00,66.8,58.2,30.16,SE,146,6.0,13.0,74,0.00,,,0.01,598,Wunderground v.1.15,2013-09-26 15:36:00,
2013-09-26 10:38:00,66.9,58.3,30.16,SE,127,12.0,14.0,74,0.00,,,0.01,603,Wunderground v.1.15,2013-09-26 15:38:00,
2013-09-26 10:39:00,67.0,58.1,30.16,ESE,111,6.0,14.0,73,0.00,,,0.01,605,Wunderground v.1.15,2013-09-26 15:39:00,
2013-09-26 10:42:00,67.1,58.5,30.16,ESE,113,8.0,12.0,74,0.00,,,0.01,608,Wunderground v.1.15,2013-09-26 15:42:00,
2013-09-26 10:43:00,67.2,58.2,30.16,SE,138,6.0,12.0,73,0.00,,,0.01,612,Wunderground v.1.15,2013-09-26 15:43:00,
2013-09-26 10:44:00,67.2,58.6,30.16,SE,138,5.0,12.0,74,0.00,,,0.01,612,Wunderground v.1.15,2013-09-26 15:44:00,
2013-09-26 10:45:00,67.4,58.8,30.16,SE,130,4.0,12.0,74,0.00,,,0.01,617,Wunderground v.1.15,2013-09-26 15:45:00,
2013-09-26 10:47:00,67.6,58.6,30.16,SE,133,5.0,12.0,73,0.00,,,0.01,619,Wunderground v.1.15,2013-09-26 15:47:00,
2013-09-26 10:49:00,67.8,58.1,30.16,ESE,113,11.0,12.0,71,0.00,,,0.01,621,Wunderground v.1.15,2013-09-26 15:49:00,
2013-09-26 10:50:00,67.9,57.8,30.16,ESE,109,9.0,11.0,70,0.00,,,0.01,621,Wunderground v.1.15,2013-09-26 15:50:00,
2013-09-26 10:52:00,68.0,57.8,30.16,South,184,7.0,11.0,70,0.00,,,0.01,631,Wunderground v.1.15,2013-09-26 15:52:00,
2013-09-26 10:54:00,68.1,58.3,30.16,SSE,165,9.0,12.0,71,0.00,,,0.01,633,Wunderground v.1.15,2013-09-26 15:54:00,
2013-09-26 10:55:00,68.3,57.7,30.16,SE,136,9.0,12.0,69,0.00,,,0.01,629,Wunderground v.1.15,2013-09-26 15:55:00,
2013-09-26 10:57:00,68.4,57.8,30.16,ESE,114,4.0,12.0,69,0.00,,,0.01,636,Wunderground v.1.15,2013-09-26 15:57:00,
2013-09-26 10:59:00,68.5,58.3,30.16,SE,140,2.0,12.0,70,0.00,,,0.01,638,Wunderground v.1.15,2013-09-26 15:59:00,
2013-09-26 11:01:00,68.7,58.1,30.16,ESE,111,6.0,8.0,69,0.00,,,0.01,645,Wunderground v.1.15,2013-09-26 16:01:00,
2013-09-26 11:02:00,68.8,58.2,30.16,SE,138,9.0,9.0,69,0.00,,,0.01,645,Wunderground v.1.15,2013-09-26 16:02:00,
2013-09-26 11:04:00,69.0,58.4,30.16,South,178,8.0,11.0,69,0.00,,,0.01,647,Wunderground v.1.15,2013-09-26 16:04:00,
2013-09-26 11:06:00,69.2,57.8,30.16,SSE,164,10.0,13.0,67,0.00,,,0.01,650,Wunderground v.1.15,2013-09-26 16:06:00,
2013-09-26 11:07:00,69.2,57.4,30.17,SSE,155,11.0,13.0,66,0.00,,,0.01,647,Wunderground v.1.15,2013-09-26 16:07:00,
2013-09-26 11:09:00,69.1,56.8,30.16,SSE,151,8.0,13.0,65,0.00,,,0.01,654,Wunderground v.1.15,2013-09-26 16:09:00,
2013-09-26 11:11:00,69.0,56.3,30.17,SSE,150,10.0,17.0,64,0.00,,,0.01,663,Wunderground v.1.15,2013-09-26 16:11:00,
2013-09-26 11:12:00,69.0,56.3,30.16,SE,136,7.0,17.0,64,0.00,,,0.01,659,Wunderground v.1.15,2013-09-26 16:12:00,
2013-09-26 11:14:00,69.0,56.7,30.16,South,171,6.0,17.0,65,0.00,,,0.01,663,Wunderground v.1.15,2013-09-26 16:14:00,
2013-09-26 11:16:00,69.0,56.7,30.16,ESE,113,7.0,17.0,65,0.00,,,0.01,671,Wunderground v.1.15,2013-09-26 16:16:00,
2013-09-26 11:17:00,69.0,57.2,30.16,ESE,119,9.0,17.0,66,0.00,,,0.01,657,Wunderground v.1.15,2013-09-26 16:17:00,
2013-09-26 11:18:00,69.0,56.7,30.16,South,171,7.0,17.0,65,0.00,,,0.01,657,Wunderground v.1.15,2013-09-26 16:18:00,
2013-09-26 11:19:00,69.1,56.8,30.16,South,175,6.0,9.0,65,0.00,,,0.01,668,Wunderground v.1.15,2013-09-26 16:19:00,
2013-09-26 11:22:00,69.4,57.1,30.16,SE,133,11.0,13.0,65,0.00,,,0.01,673,Wunderground v.1.15,2013-09-26 16:22:00,
2013-09-26 11:23:00,69.4,57.5,30.17,SE,144,13.0,14.0,66,0.00,,,0.01,666,Wunderground v.1.15,2013-09-26 16:23:00,
2013-09-26 11:25:00,69.5,56.8,30.16,East,96,5.0,14.0,64,0.00,,,0.01,673,Wunderground v.1.15,2013-09-26 16:25:00,
2013-09-26 11:27:00,69.5,56.3,30.17,SSE,155,12.0,16.0,63,0.00,,,0.01,677,Wunderground v.1.15,2013-09-26 16:27:00,
2013-09-26 11:28:00,69.5,56.8,30.17,South,177,9.0,16.0,64,0.00,,,0.01,675,Wunderground v.1.15,2013-09-26 16:28:00,
2013-09-26 11:30:00,69.5,56.8,30.17,SE,142,6.0,10.0,64,0.00,,,0.01,679,Wunderground v.1.15,2013-09-26 16:30:00,
2013-09-26 11:32:00,69.5,56.8,30.16,SSE,156,11.0,12.0,64,0.00,,,0.01,675,Wunderground v.1.15,2013-09-26 16:32:00,
2013-09-26 11:33:00,69.5,56.8,30.16,SE,134,9.0,13.0,64,0.00,,,0.01,682,Wunderground v.1.15,2013-09-26 16:33:00,
2013-09-26 11:35:00,69.5,56.8,30.16,SSE,167,8.0,13.0,64,0.00,,,0.01,694,Wunderground v.1.15,2013-09-26 16:35:00,
2013-09-26 11:38:00,69.6,56.9,30.16,SE,132,2.0,13.0,64,0.00,,,0.01,689,Wunderground v.1.15,2013-09-26 16:38:00,
2013-09-26 11:40:00,69.7,57.0,30.16,SSE,154,6.0,9.0,64,0.00,,,0.01,700,Wunderground v.1.15,2013-09-26 16:40:00,
2013-09-26 11:42:00,69.8,57.1,30.16,SE,142,8.0,14.0,64,0.00,,,0.01,687,Wunderground v.1.15,2013-09-26 16:42:00,
2013-09-26 11:43:00,69.8,57.1,30.17,SE,131,7.0,14.0,64,0.00,,,0.01,686,Wunderground v.1.15,2013-09-26 16:43:00,
2013-09-26 11:44:00,69.8,57.5,30.17,South,172,9.0,14.0,65,0.00,,,0.01,701,Wunderground v.1.15,2013-09-26 16:44:00,
2013-09-26 11:45:00,69.9,57.6,30.17,South,169,7.0,14.0,65,0.00,,,0.01,700,Wunderground v.1.15,2013-09-26 16:45:00,
2013-09-26 11:48:00,69.9,58.0,30.17,SE,140,7.0,14.0,66,0.00,,,0.01,701,Wunderground v.1.15,2013-09-26 16:48:00,
2013-09-26 11:49:00,70.0,57.7,30.16,SSE,148,5.0,14.0,65,0.00,,,0.01,721,Wunderground v.1.15,2013-09-26 16:49:00,
2013-09-26 11:50:00,70.0,57.3,30.16,SE,133,1.0,9.0,64,0.00,,,0.01,721,Wunderground v.1.15,2013-09-26 16:50:00,
2013-09-26 11:53:00,70.2,57.9,30.16,SSE,167,11.0,12.0,65,0.00,,,0.01,705,Wunderground v.1.15,2013-09-26 16:53:00,
2013-09-26 11:54:00,70.2,57.9,30.16,South,190,9.0,12.0,65,0.00,,,0.01,705,Wunderground v.1.15,2013-09-26 16:54:00,
2013-09-26 11:56:00,70.3,57.5,30.16,SE,145,7.0,12.0,64,0.00,,,0.01,719,Wunderground v.1.15,2013-09-26 16:56:00,
2013-09-26 11:59:00,70.4,58.1,30.16,SE,137,8.0,14.0,65,0.00,,,0.01,712,Wunderground v.1.15,2013-09-26 16:59:00,
2013-09-26 12:00:00,70.4,58.5,30.16,SE,134,5.0,8.0,66,0.00,,,0.01,712,Wunderground v.1.15,2013-09-26 17:00:00,
2013-09-26 12:01:00,70.4,58.1,30.16,SE,145,10.0,10.0,65,0.00,,,0.01,719,Wunderground v.1.15,2013-09-26 17:01:00,
2013-09-26 12:04:00,70.3,58.4,30.16,SSE,150,7.0,13.0,66,0.00,,,0.01,722,Wunderground v.1.15,2013-09-26 17:04:00,
2013-09-26 12:06:00,70.3,58.0,30.16,ESE,122,8.0,13.0,65,0.00,,,0.01,722,Wunderground v.1.15,2013-09-26 17:06:00,
2013-09-26 12:09:00,70.3,57.5,30.16,SSE,166,2.0,13.0,64,0.00,,,0.01,719,Wunderground v.1.15,2013-09-26 17:09:00,
2013-09-26 12:11:00,70.5,58.2,30.16,SSE,162,12.0,13.0,65,0.00,,,0.01,717,Wunderground v.1.15,2013-09-26 17:11:00,
2013-09-26 12:14:00,70.5,57.7,30.16,SE,134,6.0,13.0,64,0.00,,,0.01,712,Wunderground v.1.15,2013-09-26 17:14:00,
2013-09-26 12:16:00,70.7,57.9,30.16,ESE,117,2.0,13.0,64,0.00,,,0.01,724,Wunderground v.1.15,2013-09-26 17:16:00,
2013-09-26 12:17:00,70.7,57.9,30.16,ESE,120,1.0,13.0,64,0.00,,,0.01,724,Wunderground v.1.15,2013-09-26 17:17:00,
2013-09-26 12:19:00,70.9,58.1,30.16,South,170,6.0,13.0,64,0.00,,,0.01,721,Wunderground v.1.15,2013-09-26 17:19:00,
2013-09-26 12:20:00,71.0,57.3,30.16,South,174,7.0,8.0,62,0.00,,,0.01,717,Wunderground v.1.15,2013-09-26 17:20:00,
2013-09-26 12:21:00,71.1,57.4,30.16,SSE,164,10.0,13.0,62,0.00,,,0.01,724,Wunderground v.1.15,2013-09-26 17:21:00,
2013-09-26 12:22:00,71.2,57.1,30.16,South,170,9.0,13.0,61,0.00,,,0.01,726,Wunderground v.1.15,2013-09-26 17:22:00,
2013-09-26 12:24:00,71.2,57.5,30.16,SE,145,4.0,13.0,62,0.00,,,0.01,729,Wunderground v.1.15,2013-09-26 17:24:00,
2013-09-26 12:25:00,71.2,57.5,30.16,South,170,4.0,13.0,62,0.00,,,0.01,728,Wunderground v.1.15,2013-09-26 17:25:00,
2013-09-26 12:27:00,71.4,58.1,30.16,SSE,147,8.0,13.0,63,0.00,,,0.01,726,Wunderground v.1.15,2013-09-26 17:27:00,
2013-09-26 12:29:00,71.6,57.9,30.16,SSE,157,4.0,13.0,62,0.00,,,0.01,721,Wunderground v.1.15,2013-09-26 17:29:00,
2013-09-26 12:30:00,71.7,57.5,30.16,South,183,5.0,14.0,61,0.00,,,0.01,724,Wunderground v.1.15,2013-09-26 17:30:00,
2013-09-26 12:32:00,71.8,58.1,30.16,SE,146,2.0,14.0,62,0.00,,,0.01,726,Wunderground v.1.15,2013-09-26 17:32:00,
2013-09-26 12:35:00,71.8,56.7,30.16,ESE,120,7.0,14.0,59,0.00,,,0.01,728,Wunderground v.1.15,2013-09-26 17:35:00,
2013-09-26 12:37:00,71.8,56.7,30.16,SE,125,7.0,14.0,59,0.00,,,0.01,729,Wunderground v.1.15,2013-09-26 17:37:00,
2013-09-26 12:38:00,71.8,57.2,30.16,SSE,157,6.0,14.0,60,0.00,,,0.01,729,Wunderground v.1.15,2013-09-26 17:38:00,
2013-09-26 12:40:00,71.9,56.8,30.15,SSE,165,12.0,12.0,59,0.00,,,0.01,735,Wunderground v.1.15,2013-09-26 17:40:00,
2013-09-26 12:43:00,72.0,56.4,30.15,SE,144,6.0,13.0,58,0.00,,,0.01,738,Wunderground v.1.15,2013-09-26 17:43:00,
2013-09-26 12:45:00,72.1,56.5,30.15,South,173,7.0,13.0,58,0.00,,,0.01,728,Wunderground v.1.15,2013-09-26 17:45:00,
2013-09-26 12:46:00,72.1,56.5,30.15,SSE,155,10.0,13.0,58,0.00,,,0.01,737,Wunderground v.1.15,2013-09-26 17:46:00,
2013-09-26 12:48:00,72.2,56.1,30.15,SE,138,8.0,13.0,57,0.00,,,0.01,729,Wunderground v.1.15,2013-09-26 17:48:00,
2013-09-26 12:50:00,72.3,56.7,30.15,SSE,159,10.0,12.0,58,0.00,,,0.01,731,Wunderground v.1.15,2013-09-26 17:50:00,
2013-09-26 12:51:00,72.3,56.7,30.15,SSW,199,4.0,12.0,58,0.00,,,0.01,733,Wunderground v.1.15,2013-09-26 17:51:00,
2013-09-26 12:53:00,72.3,56.7,30.15,SSE,148,9.0,12.0,58,0.00,,,0.01,733,Wunderground v.1.15,2013-09-26 17:53:00,
2013-09-26 12:54:00,72.3,56.7,30.15,SSE,149,10.0,12.0,58,0.00,,,0.01,733,Wunderground v.1.15,2013-09-26 17:54:00,
2013-09-26 12:55:00,72.3,56.7,30.15,SE,126,8.0,13.0,58,0.00,,,0.01,728,Wunderground v.1.15,2013-09-26 17:55:00,
2013-09-26 12:56:00,72.2,57.1,30.15,SE,145,7.0,13.0,59,0.00,,,0.01,735,Wunderground v.1.15,2013-09-26 17:56:00,
2013-09-26 12:59:00,72.4,56.3,30.15,SSE,151,7.0,13.0,57,0.00,,,0.01,738,Wunderground v.1.15,2013-09-26 17:59:00,
2013-09-26 13:01:00,72.4,55.8,30.15,SE,130,12.0,14.0,56,0.00,,,0.01,731,Wunderground v.1.15,2013-09-26 18:01:00,
2013-09-26 13:04:00,72.3,56.2,30.15,South,169,8.0,15.0,57,0.00,,,0.01,729,Wunderground v.1.15,2013-09-26 18:04:00,
2013-09-26 13:06:00,72.2,55.6,30.15,SE,146,9.0,15.0,56,0.00,,,0.01,729,Wunderground v.1.15,2013-09-26 18:06:00,
2013-09-26 13:09:00,72.3,56.2,30.15,SE,141,5.0,15.0,57,0.00,,,0.01,733,Wunderground v.1.15,2013-09-26 18:09:00,
2013-09-26 13:11:00,72.3,56.7,30.15,SE,125,8.0,9.0,58,0.00,,,0.01,731,Wunderground v.1.15,2013-09-26 18:11:00,
2013-09-26 13:12:00,72.4,56.3,30.15,SE,130,2.0,9.0,57,0.00,,,0.01,731,Wunderground v.1.15,2013-09-26 18:12:00,
2013-09-26 13:15:00,72.7,55.1,30.15,SSE,149,8.0,9.0,54,0.00,,,0.01,731,Wunderground v.1.15,2013-09-26 18:15:00,
2013-09-26 13:16:00,72.7,55.6,30.15,SE,146,6.0,13.0,55,0.00,,,0.01,731,Wunderground v.1.15,2013-09-26 18:16:00,
2013-09-26 13:18:00,72.8,56.2,30.15,SSE,167,12.0,13.0,56,0.00,,,0.01,726,Wunderground v.1.15,2013-09-26 18:18:00,
2013-09-26 13:20:00,73.0,55.9,30.15,SE,141,9.0,9.0,55,0.00,,,0.01,726,Wunderground v.1.15,2013-09-26 18:20:00,
2013-09-26 13:21:00,73.1,55.5,30.15,ESE,110,5.0,9.0,54,0.00,,,0.01,608,Wunderground v.1.15,2013-09-26 18:21:00,
2013-09-26 13:23:00,73.0,55.9,30.15,ESE,123,11.0,11.0,55,0.00,,,0.01,608,Wunderground v.1.15,2013-09-26 18:23:00,
2013-09-26 13:25:00,73.1,56.0,30.15,SE,129,4.0,11.0,55,0.00,,,0.01,726,Wunderground v.1.15,2013-09-26 18:25:00,
2013-09-26 13:26:00,73.1,56.0,30.15,SE,134,6.0,11.0,55,0.00,,,0.01,726,Wunderground v.1.15,2013-09-26 18:26:00,
2013-09-26 13:29:00,73.1,56.0,30.14,SSE,162,8.0,11.0,55,0.00,,,0.01,715,Wunderground v.1.15,2013-09-26 18:29:00,